Time;durP1;ratioP1;P1;durP2;ratioP2;P2;SDS_P1;SDS_P2;PMS_P1;PMS_P2;Temp;Humidity;BMP_temperature;BMP_pressure;BME280_temperature;BME280_humidity;BME280_pressure;Samples;Min_cycle;Max_cycle;Signal;HPM_P1;HPM_P2
2021/10/18 00:02:20;;;;;;;12.18;9.75;;;;;;;6.89;77.10;99580.69;2617761;54;20026;-65
2021/10/18 00:04:50;;;;;;;14.02;9.48;;;;;;;6.86;76.64;99575.75;2617339;54;20057;-65
2021/10/18 00:07:21;;;;;;;10.75;8.98;;;;;;;6.89;76.86;99582.50;2617347;54;20030;-65
2021/10/18 00:09:50;;;;;;;12.27;9.82;;;;;;;6.82;76.62;99584.91;2617978;54;20181;-65
2021/10/18 00:12:23;;;;;;;11.98;9.48;;;;;;;6.72;77.08;99578.88;2617939;54;20038;-65
2021/10/18 00:14:52;;;;;;;11.90;9.55;;;;;;;6.75;76.80;99586.47;2618143;54;20613;-65
2021/10/18 00:17:22;;;;;;;13.15;10.10;;;;;;;6.69;76.74;99580.03;2618471;54;20561;-64
2021/10/18 00:19:51;;;;;;;13.75;10.43;;;;;;;6.61;76.94;99579.94;2618582;47;20042;-65
2021/10/18 00:22:21;;;;;;;15.27;10.52;;;;;;;6.58;77.03;99588.09;2617911;54;20030;-64
2021/10/18 00:24:50;;;;;;;16.88;11.23;;;;;;;6.54;76.68;99593.81;2618647;54;20057;-65
2021/10/18 00:27:22;;;;;;;14.05;11.25;;;;;;;6.45;76.99;99592.88;2618973;39;20473;-65
2021/10/18 00:29:52;;;;;;;16.10;11.55;;;;;;;6.47;77.23;99595.34;2618783;54;20033;-65
2021/10/18 00:32:22;;;;;;;17.73;10.82;;;;;;;6.45;77.57;99588.47;2618841;54;20038;-65
2021/10/18 00:34:51;;;;;;;14.10;10.27;;;;;;;6.46;77.72;99591.91;2618540;54;20057;-65
2021/10/18 00:37:21;;;;;;;15.07;10.07;;;;;;;6.53;77.71;99590.34;2618607;54;20146;-65
2021/10/18 00:39:50;;;;;;;14.85;10.23;;;;;;;6.58;77.35;99587.28;2618747;54;20142;-65
2021/10/18 00:42:22;;;;;;;13.35;10.18;;;;;;;6.60;76.89;99595.81;2618723;54;20597;-65
2021/10/18 00:44:52;;;;;;;11.80;8.93;;;;;;;6.64;76.95;99592.75;2618696;54;20034;-65
2021/10/18 00:47:23;;;;;;;12.85;9.00;;;;;;;6.64;76.81;99586.66;2618362;47;20126;-65
2021/10/18 00:49:53;;;;;;;13.52;9.27;;;;;;;6.64;76.89;99582.25;2618411;54;20082;-65
2021/10/18 00:52:23;;;;;;;12.68;9.15;;;;;;;6.67;76.46;99591.63;2618927;54;20134;-65
2021/10/18 00:54:54;;;;;;;11.80;8.80;;;;;;;6.62;76.14;99586.00;2618718;54;20073;-64
2021/10/18 00:57:26;;;;;;;15.85;10.05;;;;;;;6.53;75.80;99582.47;2618263;54;20124;-65
2021/10/18 00:59:57;;;;;;;12.60;9.18;;;;;;;6.39;76.08;99589.03;2618838;54;20546;-64
2021/10/18 01:02:27;;;;;;;15.15;10.00;;;;;;;6.24;76.02;99592.28;2619484;54;20078;-64
2021/10/18 01:04:58;;;;;;;13.00;9.73;;;;;;;6.14;76.49;99585.28;2619158;54;20027;-65
2021/10/18 01:07:28;;;;;;;14.57;9.70;;;;;;;6.09;76.38;99576.19;2619388;54;20026;-65
2021/10/18 01:09:57;;;;;;;13.63;9.68;;;;;;;6.08;77.31;99580.63;2618582;54;20053;-65
2021/10/18 01:12:29;;;;;;;13.98;10.52;;;;;;;6.15;76.78;99570.34;2618865;39;20495;-65
2021/10/18 01:14:59;;;;;;;10.75;8.98;;;;;;;6.09;76.40;99574.41;2619176;39;20520;-65
2021/10/18 01:17:28;;;;;;;12.20;9.35;;;;;;;6.10;76.75;99575.22;2619178;39;20489;-66
2021/10/18 01:19:58;;;;;;;13.10;9.32;;;;;;;6.07;76.39;99568.44;2618515;54;20034;-65
2021/10/18 01:22:31;;;;;;;16.13;10.40;;;;;;;6.01;76.61;99568.22;2617521;54;20150;-64
2021/10/18 01:25:00;;;;;;;15.02;10.18;;;;;;;5.89;76.16;99567.53;2618206;54;20606;-64
2021/10/18 01:27:30;;;;;;;14.55;10.32;;;;;;;5.77;76.77;99571.31;2618131;54;20129;-65
2021/10/18 01:29:59;;;;;;;15.38;10.05;;;;;;;5.65;76.68;99575.91;2618135;54;20030;-64
2021/10/18 01:32:29;;;;;;;12.07;9.27;;;;;;;5.55;76.93;99570.69;2618181;54;20078;-65
2021/10/18 01:34:58;;;;;;;16.67;10.23;;;;;;;5.58;77.60;99569.56;2618489;54;20035;-65
2021/10/18 01:37:30;;;;;;;13.70;9.60;;;;;;;5.65;77.47;99566.22;2618151;54;20044;-64
2021/10/18 01:40:00;;;;;;;16.42;11.07;;;;;;;5.73;77.18;99570.75;2618252;54;20070;-65
2021/10/18 01:42:29;;;;;;;18.80;11.68;;;;;;;5.57;77.09;99567.91;2618143;54;20159;-65
2021/10/18 01:44:59;;;;;;;20.95;12.63;;;;;;;5.52;78.02;99575.38;2617670;47;20174;-65
2021/10/18 01:47:28;;;;;;;18.55;12.20;;;;;;;5.65;78.18;99579.34;2618168;54;20023;-64
2021/10/18 01:49:58;;;;;;;21.67;12.32;;;;;;;5.75;77.80;99571.44;2618286;54;20077;-65
2021/10/18 01:52:30;;;;;;;22.65;13.55;;;;;;;5.68;78.01;99578.25;2618219;54;20038;-65
2021/10/18 01:55:00;;;;;;;18.67;11.85;;;;;;;5.67;78.21;99573.94;2618235;54;20034;-65
2021/10/18 01:57:29;;;;;;;16.05;11.30;;;;;;;5.64;78.40;99580.31;2618242;54;20038;-64
2021/10/18 01:59:59;;;;;;;18.00;12.15;;;;;;;5.68;78.08;99580.88;2618390;54;20031;-64
2021/10/18 02:02:29;;;;;;;19.17;12.32;;;;;;;5.75;78.68;99581.09;2617334;54;20589;-65
2021/10/18 02:04:59;;;;;;;21.95;12.18;;;;;;;5.76;78.16;99591.47;2617928;54;20031;-65
2021/10/18 02:07:31;;;;;;;20.02;11.70;;;;;;;5.77;78.31;99592.31;2617992;54;20110;-65
2021/10/18 02:10:01;;;;;;;16.58;11.85;;;;;;;5.75;78.43;99587.19;2618033;54;20370;-65
2021/10/18 02:12:31;;;;;;;18.67;11.13;;;;;;;5.80;78.55;99577.09;2619237;54;20130;-65
2021/10/18 02:15:00;;;;;;;14.15;10.73;;;;;;;5.88;78.21;99587.72;2620746;54;20089;-64
2021/10/18 02:17:30;;;;;;;18.02;11.50;;;;;;;6.01;78.61;99586.59;2620232;54;20046;-64
2021/10/18 02:19:59;;;;;;;16.63;11.77;;;;;;;6.13;77.72;99594.13;2620105;51;20034;-65
2021/10/18 02:22:31;;;;;;;14.93;10.27;;;;;;;6.21;77.47;99585.53;2620795;54;20022;-64
2021/10/18 02:25:01;;;;;;;13.23;8.80;;;;;;;6.26;76.68;99583.31;2621488;39;20536;-65
2021/10/18 02:27:30;;;;;;;16.30;8.95;;;;;;;6.24;76.25;99579.97;2621221;54;20163;-65
2021/10/18 02:30:03;;;;;;;12.45;8.77;;;;;;;6.20;76.08;99574.22;2621205;54;20568;-64
2021/10/18 02:32:32;;;;;;;10.75;8.05;;;;;;;6.24;76.04;99579.97;2618985;54;20030;-64
2021/10/18 02:35:05;;;;;;;9.18;7.68;;;;;;;6.29;76.19;99572.50;2618286;54;20570;-64
2021/10/18 02:37:37;;;;;;;12.57;8.75;;;;;;;6.39;75.51;99568.03;2619210;54;20038;-65
2021/10/18 02:40:08;;;;;;;10.20;8.52;;;;;;;6.44;75.19;99572.81;2621595;54;20034;-65
2021/10/18 02:42:38;;;;;;;14.60;10.30;;;;;;;6.42;74.47;99572.16;2621687;54;20086;-65
2021/10/18 02:45:10;;;;;;;15.70;11.07;;;;;;;6.20;74.60;99576.84;2620550;51;20023;-64
2021/10/18 02:47:40;;;;;;;18.55;12.38;;;;;;;5.99;74.61;99578.84;2620384;47;20030;-65
2021/10/18 02:50:10;;;;;;;18.83;12.85;;;;;;;5.85;75.78;99580.13;2619705;54;20054;-66
2021/10/18 02:52:42;;;;;;;21.30;12.95;;;;;;;5.78;76.32;99586.91;2618589;39;20426;-65
2021/10/18 02:55:12;;;;;;;21.70;13.63;;;;;;;5.81;76.70;99583.19;2617784;47;20031;-64
2021/10/18 02:57:41;;;;;;;18.45;12.00;;;;;;;5.80;76.80;99582.34;2618096;54;20151;-65
2021/10/18 03:00:12;;;;;;;21.10;12.82;;;;;;;5.81;76.99;99583.19;2618211;54;20565;-65
2021/10/18 03:02:41;;;;;;;25.42;14.23;;;;;;;5.71;77.21;99586.66;2617824;54;20038;-64
2021/10/18 03:05:11;;;;;;;27.02;15.07;;;;;;;5.65;77.56;99583.78;2618048;54;20050;-64
2021/10/18 03:07:44;;;;;;;22.92;14.50;;;;;;;5.55;77.30;99590.81;2617940;54;20034;-65
2021/10/18 03:10:14;;;;;;;28.65;13.30;;;;;;;5.43;77.51;99592.78;2618644;54;20081;-64
2021/10/18 03:12:43;;;;;;;30.70;15.60;;;;;;;5.35;78.36;99600.53;2620600;54;20038;-64
2021/10/18 03:15:13;;;;;;;24.83;14.50;;;;;;;5.37;78.64;99598.59;2620277;54;20038;-64
2021/10/18 03:17:43;;;;;;;22.58;13.45;;;;;;;5.40;78.95;99590.44;2619441;54;20033;-64
2021/10/18 03:20:14;;;;;;;24.20;13.50;;;;;;;5.42;78.32;99593.75;2618535;54;20033;-64
2021/10/18 03:22:46;;;;;;;22.08;13.75;;;;;;;5.52;78.71;99596.38;2617898;54;20094;-64
2021/10/18 03:25:16;;;;;;;29.00;14.80;;;;;;;5.55;78.71;99598.69;2617877;54;20081;-64
2021/10/18 03:27:45;;;;;;;30.98;15.65;;;;;;;5.54;78.73;99595.25;2617766;54;20030;-65
2021/10/18 03:30:15;;;;;;;28.77;14.50;;;;;;;5.53;78.98;99603.25;2618233;54;20130;-64
2021/10/18 03:32:45;;;;;;;26.50;15.50;;;;;;;5.59;79.19;99602.69;2617299;51;20109;-65
2021/10/18 03:35:15;;;;;;;31.23;14.48;;;;;;;5.60;79.01;99604.34;2618044;54;20030;-65
2021/10/18 03:37:47;;;;;;;34.47;14.00;;;;;;;5.60;79.21;99612.22;2618089;54;20046;-65
2021/10/18 03:40:23;;;;;;;48.38;16.35;;;;;;;5.55;79.39;99617.91;2618859;39;20552;-65
2021/10/18 03:42:52;;;;;;;26.55;14.40;;;;;;;5.58;79.77;99622.84;2618390;54;20122;-65
2021/10/18 03:45:22;;;;;;;38.78;14.18;;;;;;;5.61;79.45;99612.06;2618592;54;20090;-65
2021/10/18 03:47:51;;;;;;;34.28;15.38;;;;;;;5.56;79.47;99613.47;2618734;39;20450;-65
2021/10/18 03:50:21;;;;;;;34.28;14.77;;;;;;;5.52;79.69;99617.34;2618531;54;20526;-65
2021/10/18 03:52:53;;;;;;;39.35;15.23;;;;;;;5.47;79.41;99615.16;2617844;54;20042;-65
2021/10/18 03:55:23;;;;;;;38.05;17.17;;;;;;;5.59;80.25;99611.41;2618212;54;20145;-65
2021/10/18 03:57:53;;;;;;;35.17;15.85;;;;;;;5.72;80.24;99624.22;2618606;39;20554;-65
2021/10/18 04:00:24;;;;;;;41.72;15.73;;;;;;;5.79;79.79;99624.47;2618207;54;20137;-65
2021/10/18 04:02:54;;;;;;;27.23;15.23;;;;;;;5.76;79.76;99625.59;2617792;54;20029;-65
2021/10/18 04:05:24;;;;;;;44.28;16.60;;;;;;;5.73;79.92;99633.72;2618118;54;20126;-65
2021/10/18 04:07:56;;;;;;;30.23;15.05;;;;;;;5.69;80.26;99629.75;2618039;54;20117;-65
2021/10/18 04:10:26;;;;;;;34.80;16.15;;;;;;;5.69;79.96;99632.38;2617367;54;20030;-65
2021/10/18 04:12:55;;;;;;;38.97;16.75;;;;;;;5.72;80.23;99632.09;2617756;54;20588;-65
2021/10/18 04:15:25;;;;;;;56.30;17.98;;;;;;;5.70;79.48;99647.94;2618042;54;20090;-65
2021/10/18 04:17:55;;;;;;;50.15;17.58;;;;;;;5.57;79.91;99647.41;2617923;54;20053;-65
2021/10/18 04:20:24;;;;;;;33.58;16.00;;;;;;;5.65;80.72;99647.53;2617413;54;20022;-65
2021/10/18 04:22:56;;;;;;;33.75;15.68;;;;;;;5.71;80.47;99648.78;2617772;54;20039;-65
2021/10/18 04:25:26;;;;;;;59.72;16.20;;;;;;;5.70;80.51;99655.81;2618091;54;20051;-65
2021/10/18 04:27:56;;;;;;;35.70;17.90;;;;;;;5.77;80.85;99655.28;2617961;54;20059;-65
2021/10/18 04:30:26;;;;;;;36.65;18.38;;;;;;;5.81;80.44;99667.13;2617818;54;20078;-65
2021/10/18 04:32:56;;;;;;;35.00;17.50;;;;;;;5.77;80.02;99666.59;2617135;47;20530;-65
2021/10/18 04:35:25;;;;;;;44.45;17.23;;;;;;;5.67;79.58;99663.13;2617359;47;20070;-65
2021/10/18 04:37:57;;;;;;;38.08;17.50;;;;;;;5.58;79.96;99659.56;2618250;54;20031;-65
2021/10/18 04:40:28;;;;;;;35.23;17.33;;;;;;;5.52;80.35;99670.63;2618420;39;20501;-65
2021/10/18 04:42:58;;;;;;;41.13;16.35;;;;;;;5.55;80.35;99672.13;2617116;54;20050;-65
2021/10/18 04:45:27;;;;;;;32.00;16.35;;;;;;;5.51;80.17;99666.34;2618335;54;20114;-65
2021/10/18 04:47:58;;;;;;;34.67;17.30;;;;;;;5.51;80.38;99668.13;2618014;54;20034;-65
2021/10/18 04:50:28;;;;;;;33.78;17.55;;;;;;;5.58;80.50;99674.47;2618268;54;20026;-65
2021/10/18 04:53:00;;;;;;;40.15;18.63;;;;;;;5.56;80.29;99674.63;2617882;54;20030;-65
2021/10/18 04:55:30;;;;;;;32.60;17.73;;;;;;;5.45;80.36;99675.59;2618030;54;20063;-65
2021/10/18 04:58:00;;;;;;;32.13;16.75;;;;;;;5.51;80.69;99674.22;2618462;54;20094;-65
2021/10/18 05:00:36;;;;;;;33.90;16.45;;;;;;;5.57;80.56;99673.66;2618259;54;20035;-65
2021/10/18 05:03:06;;;;;;;35.28;19.08;;;;;;;5.59;80.06;99684.00;2617918;54;20573;-65
2021/10/18 05:05:35;;;;;;;67.93;19.25;;;;;;;5.38;79.30;99678.91;2618765;54;20162;-65
2021/10/18 05:08:09;;;;;;;51.90;17.70;;;;;;;5.29;79.96;99685.78;2618627;54;20050;-65
2021/10/18 05:10:40;;;;;;;36.55;17.42;;;;;;;5.26;79.77;99682.63;2618738;54;20113;-65
2021/10/18 05:13:12;;;;;;;47.95;16.73;;;;;;;5.16;80.29;99682.63;2618091;54;20067;-64
2021/10/18 05:15:41;;;;;;;29.50;14.88;;;;;;;5.12;80.20;99689.91;2618877;54;20043;-64
2021/10/18 05:18:11;;;;;;;26.67;12.93;;;;;;;5.06;79.83;99684.38;2619417;54;20099;-64
2021/10/18 05:20:41;;;;;;;24.35;13.70;;;;;;;5.04;79.97;99688.94;2619719;54;20118;-65
2021/10/18 05:23:13;;;;;;;20.77;12.60;;;;;;;5.03;80.16;99693.38;2619524;54;20150;-65
2021/10/18 05:25:42;;;;;;;19.65;11.50;;;;;;;5.00;80.47;99693.63;2619681;54;20138;-64
2021/10/18 05:28:12;;;;;;;20.50;12.63;;;;;;;5.01;80.02;99694.44;2620117;54;20086;-64
2021/10/18 05:30:41;;;;;;;19.92;11.60;;;;;;;4.99;80.01;99704.25;2619903;54;20153;-65
2021/10/18 05:33:11;;;;;;;22.83;12.23;;;;;;;5.00;79.81;99703.28;2620058;54;20109;-65
2021/10/18 05:35:41;;;;;;;20.40;12.27;;;;;;;4.99;79.87;99702.47;2620036;54;20082;-65
2021/10/18 05:38:13;;;;;;;20.80;11.52;;;;;;;5.03;80.01;99705.63;2620037;54;20066;-65
2021/10/18 05:40:42;;;;;;;22.50;11.57;;;;;;;4.84;79.23;99698.56;2620376;54;20046;-65
2021/10/18 05:43:12;;;;;;;17.08;10.70;;;;;;;4.77;79.43;99695.63;2620884;39;20434;-65
2021/10/18 05:45:41;;;;;;;20.88;11.63;;;;;;;4.82;79.62;99703.13;2621349;54;20030;-65
2021/10/18 05:48:11;;;;;;;19.75;11.60;;;;;;;4.68;79.19;99696.44;2622082;54;20027;-64
2021/10/18 05:50:44;;;;;;;24.13;12.57;;;;;;;4.62;79.78;99705.66;2621385;47;20119;-65
2021/10/18 05:53:17;;;;;;;17.40;11.55;;;;;;;4.64;79.73;99698.47;2621461;54;20071;-65
2021/10/18 05:55:47;;;;;;;22.17;11.13;;;;;;;4.66;79.69;99698.38;2623486;54;20046;-64
2021/10/18 05:58:16;;;;;;;22.08;11.82;;;;;;;4.67;79.78;99700.03;2621823;54;20303;-68
2021/10/18 06:00:48;;;;;;;19.40;11.25;;;;;;;4.67;79.95;99708.69;2621940;39;20433;-65
2021/10/18 06:03:18;;;;;;;21.50;11.77;;;;;;;4.69;79.77;99708.56;2621117;54;20026;-64
2021/10/18 06:05:51;;;;;;;18.38;11.85;;;;;;;4.76;79.49;99698.38;2622545;54;20089;-65
2021/10/18 06:08:43;;;;;;;15.40;10.82;;;;;;;4.81;79.66;99707.50;2622777;54;20111;-65
2021/10/18 06:11:16;;;;;;;20.38;12.95;;;;;;;4.88;79.23;99700.75;2623025;54;20053;-65
2021/10/18 06:13:46;;;;;;;18.30;11.80;;;;;;;4.89;78.86;99702.41;2621679;54;20042;-65
2021/10/18 06:16:15;;;;;;;20.63;11.70;;;;;;;4.91;79.11;99710.97;2621465;54;20074;-64
2021/10/18 06:18:45;;;;;;;17.83;11.00;;;;;;;5.01;79.21;99710.16;2620958;47;20148;-65
2021/10/18 06:21:15;;;;;;;16.52;10.57;;;;;;;5.06;79.25;99715.84;2622189;54;20042;-65
2021/10/18 06:23:47;;;;;;;18.23;11.38;;;;;;;5.01;77.91;99720.66;2621624;54;20030;-66
2021/10/18 06:26:17;;;;;;;19.50;11.02;;;;;;;4.92;78.16;99717.88;2622105;54;20050;-65
2021/10/18 06:28:46;;;;;;;18.02;10.35;;;;;;;4.88;78.09;99724.34;2621525;54;20086;-65
2021/10/18 06:31:16;;;;;;;23.08;12.30;;;;;;;4.86;78.45;99728.91;2621820;54;20077;-65
2021/10/18 06:33:46;;;;;;;26.05;11.80;;;;;;;4.91;78.46;99736.38;2621775;54;20085;-64
2021/10/18 06:36:15;;;;;;;22.10;11.77;;;;;;;5.02;79.10;99733.63;2622290;54;20083;-64
2021/10/18 06:38:47;;;;;;;26.30;11.32;;;;;;;5.22;79.40;99742.34;2621765;54;20074;-64
2021/10/18 06:41:17;;;;;;;22.30;11.25;;;;;;;5.34;78.98;99733.41;2621461;54;20029;-64
2021/10/18 06:43:46;;;;;;;34.28;12.40;;;;;;;5.30;78.62;99734.63;2621553;54;20038;-64
2021/10/18 06:46:16;;;;;;;29.48;12.00;;;;;;;5.28;78.94;99730.50;2621371;54;20098;-64
2021/10/18 06:48:45;;;;;;;32.90;13.23;;;;;;;5.44;79.24;99747.38;2621450;54;20042;-64
2021/10/18 06:51:15;;;;;;;33.05;13.80;;;;;;;5.66;79.49;99745.44;2620671;54;20030;-65
2021/10/18 06:53:50;;;;;;;32.55;14.55;;;;;;;5.78;79.14;99744.31;2621190;54;20034;-64
2021/10/18 06:56:19;;;;;;;32.97;14.60;;;;;;;5.69;78.33;99734.66;2621744;54;20038;-64
2021/10/18 06:58:49;;;;;;;31.13;12.57;;;;;;;5.69;79.03;99737.28;2621840;54;20027;-64
2021/10/18 07:01:18;;;;;;;33.33;13.13;;;;;;;5.76;79.01;99745.44;2621979;54;20030;-64
2021/10/18 07:03:48;;;;;;;32.55;13.10;;;;;;;5.78;78.75;99748.75;2621843;54;20038;-64
2021/10/18 07:06:18;;;;;;;37.42;16.33;;;;;;;5.84;78.55;99754.28;2621530;54;20026;-64
2021/10/18 07:08:50;;;;;;;36.45;14.63;;;;;;;5.82;78.53;99758.00;2621456;54;20082;-64
2021/10/18 07:11:19;;;;;;;38.40;13.73;;;;;;;5.95;79.02;99755.94;2621523;39;20395;-64
2021/10/18 07:13:49;;;;;;;37.92;13.82;;;;;;;6.00;78.92;99766.88;2620490;54;20030;-64
2021/10/18 07:16:18;;;;;;;35.72;14.70;;;;;;;6.02;78.15;99767.56;2620926;54;20085;-64
2021/10/18 07:18:48;;;;;;;45.25;16.23;;;;;;;6.06;78.46;99775.97;2621366;54;20146;-64
2021/10/18 07:21:18;;;;;;;38.42;14.75;;;;;;;6.22;78.84;99780.66;2621283;54;20037;-64
2021/10/18 07:23:55;;;;;;;46.72;15.40;;;;;;;6.20;77.94;99775.53;2621618;54;20158;-65
2021/10/18 07:26:25;;;;;;;44.90;14.80;;;;;;;6.18;78.28;99772.22;2621687;54;20027;-65
2021/10/18 07:29:00;;;;;;;42.63;16.10;;;;;;;6.22;78.25;99778.03;2620853;54;20070;-65
2021/10/18 07:31:29;;;;;;;41.63;15.68;;;;;;;6.30;78.52;99778.16;2621547;54;20038;-64
2021/10/18 07:34:02;;;;;;;40.67;15.80;;;;;;;6.55;78.47;99771.47;2622145;54;20050;-65
2021/10/18 07:36:36;;;;;;;47.67;19.55;;;;;;;6.80;78.28;99775.25;2622267;54;20042;-65
2021/10/18 07:39:08;;;;;;;53.20;20.80;;;;;;;6.88;77.97;99772.72;2621459;54;20093;-64
2021/10/18 07:41:37;;;;;;;50.75;19.15;;;;;;;6.97;77.65;99763.13;2622415;54;20034;-64
2021/10/18 07:44:07;;;;;;;42.92;17.73;;;;;;;7.06;77.72;99767.50;2621825;54;20030;-65
2021/10/18 07:46:37;;;;;;;37.30;16.35;;;;;;;7.21;77.57;99763.41;2621823;54;20077;-64
2021/10/18 07:49:06;;;;;;;45.55;17.52;;;;;;;7.35;77.33;99762.09;2621161;54;20045;-64
2021/10/18 07:51:36;;;;;;;45.97;17.63;;;;;;;7.52;77.32;99763.09;2621590;54;20045;-64
2021/10/18 07:54:08;;;;;;;44.95;16.52;;;;;;;7.46;76.84;99769.75;2620786;54;20035;-65
2021/10/18 07:56:38;;;;;;;40.30;17.17;;;;;;;7.50;76.47;99779.00;2620934;54;20042;-64
2021/10/18 07:59:07;;;;;;;40.15;15.73;;;;;;;7.50;76.40;99771.13;2619615;54;20030;-64
2021/10/18 08:01:37;;;;;;;39.45;16.05;;;;;;;7.58;76.85;99765.09;2619473;54;20090;-64
2021/10/18 17:22:55;;;;;;;26.35;17.83;;;;;;;11.69;73.17;99621.59;2606018;46;20026;-64
2021/10/18 17:25:25;;;;;;;17.85;14.25;;;;;;;11.68;72.94;99617.31;2618942;54;20592;-65
2021/10/18 17:27:54;;;;;;;18.08;13.95;;;;;;;11.65;73.47;99608.69;2618794;54;20033;-65
2021/10/18 17:30:24;;;;;;;27.88;19.80;;;;;;;11.63;73.51;99613.38;2619503;39;20398;-64
2021/10/18 17:32:53;;;;;;;27.48;21.42;;;;;;;11.59;73.66;99617.38;2618409;54;20133;-65
2021/10/18 17:35:23;;;;;;;45.45;32.95;;;;;;;11.53;73.39;99622.56;2619071;54;20092;-64
2021/10/18 17:37:56;;;;;;;29.77;21.02;;;;;;;11.54;73.55;99627.66;2618882;54;20149;-64
2021/10/18 17:40:26;;;;;;;21.65;17.05;;;;;;;11.48;73.70;99631.03;2618666;54;20041;-64
2021/10/18 17:42:56;;;;;;;21.50;17.02;;;;;;;11.36;74.25;99630.63;2617896;47;20035;-64
2021/10/18 17:45:25;;;;;;;27.17;20.25;;;;;;;11.32;74.22;99631.16;2618146;47;20034;-65
2021/10/18 17:48:00;;;;;;;25.35;19.75;;;;;;;11.28;74.44;99633.34;2618729;54;20545;-65
2021/10/18 17:50:29;;;;;;;19.50;16.15;;;;;;;11.22;74.33;99635.84;2618671;54;20041;-64
2021/10/18 17:53:01;;;;;;;21.48;15.30;;;;;;;11.07;74.41;99630.50;2618003;49;20031;-64
2021/10/18 17:55:31;;;;;;;18.38;14.00;;;;;;;10.99;75.36;99627.91;2618039;47;20077;-66
2021/10/18 17:58:01;;;;;;;18.95;14.63;;;;;;;11.02;75.53;99631.03;2618424;46;20082;-65
2021/10/18 18:00:31;;;;;;;18.00;15.38;;;;;;;11.09;74.92;99631.16;2619906;31;20522;-65
2021/10/18 18:03:00;;;;;;;19.05;15.18;;;;;;;11.08;74.91;99625.03;2618484;54;20030;-65
2021/10/18 18:05:30;;;;;;;23.35;17.83;;;;;;;11.08;74.66;99632.97;2618228;54;20034;-66
2021/10/18 18:08:02;;;;;;;20.38;16.10;;;;;;;10.97;75.12;99635.19;2619612;54;20038;-66
2021/10/18 18:10:32;;;;;;;21.77;15.27;;;;;;;10.97;75.19;99632.53;2619211;47;20030;-65
2021/10/18 18:13:01;;;;;;;22.08;17.15;;;;;;;10.96;74.82;99637.03;2619358;54;20146;-65
2021/10/18 18:15:31;;;;;;;23.08;17.55;;;;;;;10.91;74.92;99631.44;2618083;47;20030;-66
2021/10/18 18:18:01;;;;;;;22.10;17.42;;;;;;;10.86;74.75;99612.63;2618467;54;20034;-66
2021/10/18 18:20:30;;;;;;;28.52;20.25;;;;;;;10.80;75.02;99608.84;2618578;54;20041;-66
2021/10/18 18:23:03;;;;;;;18.95;15.57;;;;;;;10.73;75.41;99607.88;2618333;54;20133;-65
2021/10/18 18:25:33;;;;;;;21.85;16.50;;;;;;;10.63;75.80;99609.94;2617988;46;20057;-65
2021/10/18 18:28:02;;;;;;;24.67;16.60;;;;;;;10.46;76.10;99603.91;2618916;39;20538;-67
2021/10/18 18:30:32;;;;;;;21.98;16.83;;;;;;;10.37;76.21;99595.19;2618515;54;20038;-67
2021/10/18 18:33:02;;;;;;;21.08;15.38;;;;;;;10.32;76.70;99592.22;2618944;39;20426;-66
2021/10/18 18:35:31;;;;;;;23.00;17.25;;;;;;;10.26;77.09;99590.28;2617926;47;20030;-66
2021/10/18 18:38:04;;;;;;;18.30;15.38;;;;;;;10.21;76.95;99605.78;2619375;54;20042;-66
2021/10/18 18:40:35;;;;;;;14.48;11.50;;;;;;;10.07;77.20;99607.28;2618950;54;20030;-67
2021/10/18 18:43:05;;;;;;;13.80;11.52;;;;;;;10.07;77.25;99614.41;2618523;54;20042;-67
2021/10/18 18:45:35;;;;;;;15.55;13.65;;;;;;;10.00;77.59;99616.06;2618564;54;20038;-67
2021/10/18 18:48:05;;;;;;;16.65;13.38;;;;;;;9.97;77.55;99624.34;2617728;54;20045;-67
2021/10/18 18:50:35;;;;;;;14.30;12.10;;;;;;;10.01;77.62;99637.03;2618256;54;20026;-66
2021/10/18 18:53:07;;;;;;;14.68;12.40;;;;;;;10.03;77.16;99631.59;2618283;54;20065;-65
2021/10/18 18:55:37;;;;;;;19.50;15.20;;;;;;;10.07;76.86;99627.63;2618390;54;20023;-65
2021/10/18 18:58:07;;;;;;;19.55;16.10;;;;;;;10.14;76.99;99628.59;2618556;47;20050;-65
2021/10/18 19:00:37;;;;;;;18.58;13.27;;;;;;;10.16;76.84;99642.44;2618261;54;20035;-66
2021/10/18 19:03:07;;;;;;;18.73;13.45;;;;;;;10.20;76.63;99641.09;2617792;39;20437;-65
2021/10/18 19:05:37;;;;;;;16.58;13.73;;;;;;;10.18;76.50;99638.66;2618391;54;20102;-66
2021/10/18 19:08:09;;;;;;;17.20;14.02;;;;;;;10.16;76.40;99642.44;2618170;54;20042;-66
2021/10/18 19:10:39;;;;;;;21.95;14.73;;;;;;;10.10;76.46;99656.34;2618330;54;20061;-66
2021/10/18 19:13:12;;;;;;;17.45;14.15;;;;;;;10.05;76.57;99671.88;2618197;54;20038;-65
2021/10/18 19:15:42;;;;;;;20.98;15.18;;;;;;;10.01;76.12;99678.50;2618151;54;20086;-66
2021/10/18 19:18:12;;;;;;;20.15;15.52;;;;;;;9.90;76.70;99669.91;2618297;54;20042;-66
2021/10/18 19:20:43;;;;;;;22.02;15.35;;;;;;;9.85;76.86;99666.94;2617656;51;20038;-66
2021/10/18 19:23:15;;;;;;;21.63;16.30;;;;;;;9.82;76.88;99669.91;2617966;54;20114;-66
2021/10/18 19:25:45;;;;;;;23.02;18.63;;;;;;;9.83;77.18;99660.16;2618433;54;20073;-66
2021/10/18 19:28:15;;;;;;;22.77;18.25;;;;;;;9.87;76.88;99664.94;2617955;47;20031;-65
2021/10/18 19:30:44;;;;;;;27.10;21.73;;;;;;;10.00;76.66;99680.31;2618521;54;20045;-67
2021/10/18 19:33:14;;;;;;;19.92;17.23;;;;;;;10.04;76.31;99678.13;2618110;54;20561;-66
2021/10/18 19:35:43;;;;;;;24.15;19.80;;;;;;;9.99;76.55;99673.34;2617486;54;20133;-65
2021/10/18 19:38:15;;;;;;;23.02;17.27;;;;;;;9.80;76.30;99676.38;2618036;54;20084;-65
2021/10/18 19:40:45;;;;;;;19.65;15.75;;;;;;;9.72;76.95;99679.00;2617564;54;20026;-65
2021/10/18 19:43:14;;;;;;;23.30;15.20;;;;;;;9.77;77.01;99674.06;2617986;54;20046;-66
2021/10/18 19:45:44;;;;;;;20.58;15.95;;;;;;;9.80;76.72;99664.00;2618384;54;20038;-66
2021/10/18 19:48:14;;;;;;;22.25;16.00;;;;;;;9.82;76.75;99662.00;2618423;54;20081;-66
2021/10/18 19:50:43;;;;;;;22.17;17.45;;;;;;;9.79;76.78;99670.25;2618449;54;20154;-67
2021/10/18 19:53:15;;;;;;;20.38;15.95;;;;;;;9.66;76.39;99683.94;2617770;54;20077;-66
2021/10/18 19:55:45;;;;;;;23.63;15.95;;;;;;;9.55;76.52;99675.53;2617909;54;20056;-66
2021/10/18 19:58:16;;;;;;;21.23;15.23;;;;;;;9.42;77.10;99681.28;2618156;54;20102;-66
2021/10/18 20:00:47;;;;;;;18.73;15.38;;;;;;;9.50;76.98;99677.84;2618079;54;20106;-66
2021/10/18 20:03:17;;;;;;;19.50;15.93;;;;;;;9.51;76.46;99674.19;2618323;39;20450;-65
2021/10/18 20:05:46;;;;;;;18.95;15.38;;;;;;;9.36;76.46;99676.69;2618158;54;20073;-66
2021/10/18 20:08:18;;;;;;;20.75;14.27;;;;;;;9.36;77.01;99677.50;2618351;54;20553;-66
2021/10/18 20:10:49;;;;;;;15.55;13.85;;;;;;;9.36;77.34;99677.50;2618085;54;20069;-66
2021/10/18 20:13:19;;;;;;;20.65;16.55;;;;;;;9.33;76.74;99675.19;2617900;54;21033;-66
2021/10/18 20:15:48;;;;;;;19.42;14.95;;;;;;;9.23;77.38;99674.53;2617910;51;20118;-64
2021/10/18 20:18:18;;;;;;;18.13;14.25;;;;;;;9.24;77.31;99678.00;2620850;46;20072;-65
2021/10/18 20:20:48;;;;;;;22.05;15.40;;;;;;;9.26;77.25;99676.00;2619157;54;20046;-66
2021/10/18 20:23:20;;;;;;;17.95;15.32;;;;;;;9.18;76.75;99680.28;2618604;54;20081;-66
2021/10/18 20:25:49;;;;;;;18.58;15.00;;;;;;;9.07;76.70;99690.31;2617315;54;20122;-65
2021/10/18 20:28:19;;;;;;;19.15;14.30;;;;;;;8.92;77.34;99684.81;2618054;54;20073;-65
2021/10/18 20:30:49;;;;;;;19.20;14.52;;;;;;;8.87;77.15;99679.22;2617409;47;20038;-65
2021/10/18 20:33:19;;;;;;;16.17;12.77;;;;;;;8.83;77.36;99676.06;2617472;54;20038;-65
2021/10/18 20:35:48;;;;;;;16.60;12.90;;;;;;;8.82;77.28;99673.59;2618755;54;20125;-66
2021/10/18 20:38:20;;;;;;;13.95;11.88;;;;;;;8.75;77.37;99676.03;2618118;54;20170;-67
2021/10/18 20:40:51;;;;;;;23.08;16.52;;;;;;;8.66;77.34;99677.00;2618530;39;20425;-65
2021/10/18 20:43:20;;;;;;;22.25;19.30;;;;;;;8.60;77.37;99688.16;2617863;47;20042;-66
2021/10/18 20:45:50;;;;;;;13.27;11.02;;;;;;;8.52;77.29;99688.94;2619275;54;20061;-66
2021/10/18 20:48:19;;;;;;;15.48;11.75;;;;;;;8.39;77.14;99689.38;2618957;54;20118;-66
2021/10/18 20:50:51;;;;;;;16.73;10.25;;;;;;;8.32;77.59;99695.41;2618297;47;20030;-66
2021/10/18 20:53:23;;;;;;;12.13;9.55;;;;;;;8.34;77.82;99698.72;2618205;54;20138;-66
2021/10/18 20:55:53;;;;;;;12.93;10.27;;;;;;;8.36;77.95;99705.47;2618231;54;20135;-66
2021/10/18 20:58:24;;;;;;;15.70;11.45;;;;;;;8.50;77.95;99708.56;2618077;54;20122;-66